Time;durP1;ratioP1;P1;durP2;ratioP2;P2;SDS_P1;SDS_P2;PMS_P1;PMS_P2;Temp;Humidity;BMP_temperature;BMP_pressure;BME280_temperature;BME280_humidity;BME280_pressure;Samples;Min_cycle;Max_cycle;Signal;HPM_P1;HPM_P2
2023/07/04 00:01:42;;;;;;;11.00;6.38;;;;;;;;;;5038484;28;20120;-82
2023/07/04 00:04:08;;;;;;;12.25;6.30;;;;;;;;;;5038338;28;20119;-82
2023/07/04 00:06:36;;;;;;;14.45;7.30;;;;;;;;;;5022008;28;20083;-82
2023/07/04 00:09:02;;;;;;;13.75;6.57;;;;;;;;;;5022515;28;20056;-82
2023/07/04 00:11:29;;;;;;;11.30;6.88;;;;;;;;;;5038543;28;20064;-82
2023/07/04 00:13:55;;;;;;;9.88;6.72;;;;;;;;;;5038551;28;20017;-82
2023/07/04 00:16:21;;;;;;;10.32;6.53;;;;;;;;;;5038343;28;20131;-83
2023/07/04 00:18:46;;;;;;;12.02;6.35;;;;;;;;;;5022053;28;20032;-83
2023/07/04 00:21:14;;;;;;;9.93;6.72;;;;;;;;;;5037964;28;20029;-81
2023/07/04 00:23:45;;;;;;;14.52;7.50;;;;;;;;;;5022036;28;20068;-81
2023/07/04 00:26:11;;;;;;;11.55;6.97;;;;;;;;;;5022305;28;20405;-81
2023/07/04 00:28:38;;;;;;;14.63;7.45;;;;;;;;;;5021415;28;20032;-81
2023/07/04 00:31:04;;;;;;;14.18;8.13;;;;;;;;;;5038034;28;20459;-81
2023/07/04 00:33:30;;;;;;;15.25;8.55;;;;;;;;;;5037905;28;20025;-82
2023/07/04 00:36:06;;;;;;;11.50;8.30;;;;;;;;;;5037594;28;20456;-82
2023/07/04 00:38:34;;;;;;;12.90;8.18;;;;;;;;;;5037900;28;20037;-82
2023/07/04 00:41:06;;;;;;;14.48;9.43;;;;;;;;;;5021722;28;20136;-83
2023/07/04 00:43:56;;;;;;;15.80;8.43;;;;;;;;;;5021902;28;20029;-82
2023/07/04 00:46:28;;;;;;;13.33;8.70;;;;;;;;;;5055367;28;20029;-82
2023/07/04 00:48:54;;;;;;;17.27;8.55;;;;;;;;;;5038248;28;20306;-82
2023/07/04 00:51:22;;;;;;;16.70;9.20;;;;;;;;;;5037532;28;20456;-82
2023/07/04 00:53:53;;;;;;;15.43;8.55;;;;;;;;;;5021378;28;20017;-82
2023/07/04 00:56:25;;;;;;;11.00;7.50;;;;;;;;;;5021117;28;20377;-82
2023/07/04 00:58:54;;;;;;;13.52;7.63;;;;;;;;;;5021559;28;20029;-82
2023/07/04 01:01:20;;;;;;;15.52;8.15;;;;;;;;;;5037292;28;20037;-82
2023/07/04 01:03:46;;;;;;;10.57;7.10;;;;;;;;;;5037310;28;20036;-82
2023/07/04 01:06:29;;;;;;;11.15;8.00;;;;;;;;;;5020887;28;20040;-82
2023/07/04 01:08:57;;;;;;;13.00;7.60;;;;;;;;;;5037801;28;20411;-82
2023/07/04 01:11:29;;;;;;;10.63;7.18;;;;;;;;;;5037051;28;20032;-82
2023/07/04 01:13:55;;;;;;;12.10;7.28;;;;;;;;;;5021315;28;20051;-82
2023/07/04 01:16:20;;;;;;;10.15;7.63;;;;;;;;;;5020346;28;20033;-83
2023/07/04 01:18:53;;;;;;;11.73;7.90;;;;;;;;;;5036924;28;20525;-83
2023/07/04 01:21:20;;;;;;;13.30;7.30;;;;;;;;;;5020505;28;20024;-82
2023/07/04 01:24:06;;;;;;;14.35;8.05;;;;;;;;;;5020632;28;20025;-82
2023/07/04 01:26:41;;;;;;;15.05;8.18;;;;;;;;;;5037388;28;20044;-82
2023/07/04 01:29:13;;;;;;;14.10;7.88;;;;;;;;;;5036650;28;20036;-82
2023/07/04 01:31:40;;;;;;;11.70;7.35;;;;;;;;;;5020735;28;20417;-82
2023/07/04 01:34:06;;;;;;;13.43;7.80;;;;;;;;;;5020946;28;20025;-82
2023/07/04 01:36:33;;;;;;;16.90;8.40;;;;;;;;;;5036638;28;20029;-82
2023/07/04 01:38:59;;;;;;;12.43;7.80;;;;;;;;;;5019907;28;20048;-82
2023/07/04 01:41:24;;;;;;;13.55;7.43;;;;;;;;;;5036955;28;20102;-82
2023/07/04 01:43:56;;;;;;;12.15;8.40;;;;;;;;;;5020260;28;20029;-82
2023/07/04 01:46:21;;;;;;;13.48;7.88;;;;;;;;;;5020116;28;20438;-82
2023/07/04 01:48:47;;;;;;;12.88;8.10;;;;;;;;;;5036411;28;20025;-83
2023/07/04 01:51:13;;;;;;;12.65;8.05;;;;;;;;;;5036601;28;20037;-82
2023/07/04 01:53:38;;;;;;;10.40;7.78;;;;;;;;;;5036548;28;20033;-82
2023/07/04 01:56:04;;;;;;;13.73;7.88;;;;;;;;;;5032805;28;20045;-83
2023/07/04 01:58:29;;;;;;;12.02;8.25;;;;;;;;;;5033230;28;20116;-82
2023/07/04 02:00:55;;;;;;;15.98;8.25;;;;;;;;;;5016473;28;20479;-82
2023/07/04 02:03:20;;;;;;;17.80;8.50;;;;;;;;;;5033010;28;20045;-82
2023/07/04 02:05:46;;;;;;;12.70;7.68;;;;;;;;;;5034310;28;20546;-82
2023/07/04 02:08:11;;;;;;;14.18;8.52;;;;;;;;;;5016275;28;20029;-83
2023/07/04 02:10:37;;;;;;;19.35;8.38;;;;;;;;;;5033050;28;20030;-83
2023/07/04 02:13:02;;;;;;;14.35;8.38;;;;;;;;;;5032794;28;20028;-83
2023/07/04 02:15:28;;;;;;;15.95;8.80;;;;;;;;;;5016443;28;20239;-83
2023/07/04 02:17:53;;;;;;;15.50;9.13;;;;;;;;;;5016543;28;20045;-82
2023/07/04 02:20:20;;;;;;;17.88;9.20;;;;;;;;;;5032705;28;20025;-82
2023/07/04 02:22:45;;;;;;;13.88;9.00;;;;;;;;;;5033948;28;20032;-82
2023/07/04 02:25:11;;;;;;;14.23;8.52;;;;;;;;;;5032943;28;20380;-82
2023/07/04 02:27:36;;;;;;;12.70;8.25;;;;;;;;;;5033846;28;20666;-82
2023/07/04 02:30:03;;;;;;;16.70;7.35;;;;;;;;;;5032545;28;20532;-82
2023/07/04 02:32:28;;;;;;;14.25;7.70;;;;;;;;;;5033929;28;20025;-81
2023/07/04 02:34:54;;;;;;;13.15;7.80;;;;;;;;;;5016331;28;20072;-83
2023/07/04 02:37:19;;;;;;;11.57;8.13;;;;;;;;;;5032752;28;20025;-83
2023/07/04 02:39:45;;;;;;;12.10;8.25;;;;;;;;;;5016278;28;20076;-82
2023/07/04 02:42:10;;;;;;;11.68;7.72;;;;;;;;;;5032726;28;20410;-83
2023/07/04 02:44:36;;;;;;;11.40;7.15;;;;;;;;;;5016254;28;20029;-82
2023/07/04 02:47:01;;;;;;;10.70;7.57;;;;;;;;;;5000029;28;20037;-82
2023/07/04 02:49:26;;;;;;;9.52;7.32;;;;;;;;;;5032685;28;20026;-82
2023/07/04 02:51:52;;;;;;;12.38;7.60;;;;;;;;;;5016103;28;20021;-81
2023/07/04 02:54:17;;;;;;;12.32;6.78;;;;;;;;;;5017647;28;20036;-82
2023/07/04 02:56:43;;;;;;;10.48;6.90;;;;;;;;;;5019313;28;20037;-82
2023/07/04 02:59:09;;;;;;;12.70;6.65;;;;;;;;;;5022654;28;20036;-82
2023/07/04 03:01:34;;;;;;;9.73;6.47;;;;;;;;;;5057292;28;20376;-83
2023/07/04 03:04:00;;;;;;;9.93;6.57;;;;;;;;;;5039529;28;20032;-82
2023/07/04 03:06:25;;;;;;;12.45;7.32;;;;;;;;;;5039773;28;20033;-83
2023/07/04 03:08:51;;;;;;;9.48;6.07;;;;;;;;;;5023021;28;20035;-82
2023/07/04 03:11:17;;;;;;;17.50;7.45;;;;;;;;;;5039357;28;20054;-83
2023/07/04 03:13:43;;;;;;;14.35;6.57;;;;;;;;;;5022550;28;20032;-82
2023/07/04 03:16:08;;;;;;;11.75;7.25;;;;;;;;;;5022670;28;20480;-82
2023/07/04 03:18:34;;;;;;;10.38;6.90;;;;;;;;;;5039469;28;20032;-82
2023/07/04 03:20:59;;;;;;;11.82;6.70;;;;;;;;;;5023147;28;20036;-82
2023/07/04 03:23:25;;;;;;;11.07;6.90;;;;;;;;;;5039613;28;20075;-82
2023/07/04 03:25:50;;;;;;;7.90;6.00;;;;;;;;;;5039827;28;20021;-83
2023/07/04 03:28:15;;;;;;;10.90;7.32;;;;;;;;;;5022452;28;20048;-83
2023/07/04 03:30:41;;;;;;;9.70;6.22;;;;;;;;;;5022957;28;20363;-83
2023/07/04 03:33:06;;;;;;;9.98;6.93;;;;;;;;;;5038945;28;20021;-83
2023/07/04 03:35:32;;;;;;;9.30;6.70;;;;;;;;;;5022717;28;20029;-82
2023/07/04 03:37:57;;;;;;;14.23;7.13;;;;;;;;;;5038889;28;20411;-82
2023/07/04 03:40:23;;;;;;;10.40;7.07;;;;;;;;;;5038906;28;20020;-82
2023/07/04 03:42:48;;;;;;;10.18;6.80;;;;;;;;;;5038557;28;20282;-81
2023/07/04 03:45:13;;;;;;;11.80;6.70;;;;;;;;;;5022271;28;20029;-82
2023/07/04 03:47:39;;;;;;;11.02;6.60;;;;;;;;;;5022044;28;20367;-83
2023/07/04 03:50:06;;;;;;;11.38;7.15;;;;;;;;;;5022021;28;20025;-82
2023/07/04 03:52:31;;;;;;;11.75;6.93;;;;;;;;;;5006243;28;20053;-82
2023/07/04 03:54:57;;;;;;;12.65;6.60;;;;;;;;;;5038491;28;20076;-82
2023/07/04 03:57:22;;;;;;;10.00;7.22;;;;;;;;;;5056206;28;20476;-83
2023/07/04 03:59:48;;;;;;;9.65;6.47;;;;;;;;;;5038474;28;20421;-82
2023/07/04 04:02:13;;;;;;;10.95;6.90;;;;;;;;;;5038369;28;20029;-82
2023/07/04 04:04:39;;;;;;;11.02;6.13;;;;;;;;;;5038553;28;20029;-82
2023/07/04 04:07:07;;;;;;;9.43;6.80;;;;;;;;;;5038400;28;20025;-82
2023/07/04 04:09:34;;;;;;;10.68;6.85;;;;;;;;;;5021666;28;20025;-82
2023/07/04 04:12:00;;;;;;;9.55;6.28;;;;;;;;;;5056271;28;20029;-82
2023/07/04 04:14:27;;;;;;;13.90;6.88;;;;;;;;;;5038780;28;20024;-82
2023/07/04 04:16:52;;;;;;;10.75;5.97;;;;;;;;;;5021923;28;20024;-83
2023/07/04 04:19:17;;;;;;;6.80;5.70;;;;;;;;;;5038353;28;20029;-82
2023/07/04 04:21:43;;;;;;;13.70;6.57;;;;;;;;;;5056284;28;20028;-82
2023/07/04 04:24:08;;;;;;;9.85;6.00;;;;;;;;;;5037913;28;20436;-82
2023/07/04 04:26:38;;;;;;;16.33;6.22;;;;;;;;;;5038313;28;20388;-83
2023/07/04 04:29:05;;;;;;;11.77;6.57;;;;;;;;;;5055653;28;20025;-83
2023/07/04 04:31:31;;;;;;;10.80;5.95;;;;;;;;;;5038377;28;20029;-83
2023/07/04 04:33:57;;;;;;;13.50;6.95;;;;;;;;;;5021435;28;20033;-82
2023/07/04 04:36:22;;;;;;;11.57;7.13;;;;;;;;;;5055517;28;20487;-82
2023/07/04 04:38:49;;;;;;;17.58;6.75;;;;;;;;;;5055477;28;20040;-83
2023/07/04 04:41:14;;;;;;;12.07;6.40;;;;;;;;;;5021617;28;20079;-83
2023/07/04 04:43:40;;;;;;;12.38;6.78;;;;;;;;;;5037548;28;20028;-82
2023/07/04 04:46:05;;;;;;;9.13;6.53;;;;;;;;;;5055641;28;20029;-83
2023/07/04 04:48:35;;;;;;;15.73;6.93;;;;;;;;;;5037571;28;20025;-81
2023/07/04 04:51:12;;;;;;;13.10;6.95;;;;;;;;;;5038246;28;20150;-81
2023/07/04 04:53:39;;;;;;;11.48;6.28;;;;;;;;;;5038490;28;20037;-81
2023/07/04 04:56:05;;;;;;;13.18;6.20;;;;;;;;;;5037414;28;20052;-82
2023/07/04 04:58:31;;;;;;;11.15;6.03;;;;;;;;;;5055199;28;20492;-81
2023/07/04 05:00:56;;;;;;;9.25;6.40;;;;;;;;;;5055029;28;20040;-81
2023/07/04 05:03:21;;;;;;;11.25;6.50;;;;;;;;;;5055937;28;20355;-81
2023/07/04 05:05:47;;;;;;;14.50;6.30;;;;;;;;;;5037795;28;20060;-82
2023/07/04 05:08:12;;;;;;;18.40;6.20;;;;;;;;;;5020291;28;20127;-82
2023/07/04 05:10:38;;;;;;;15.68;6.70;;;;;;;;;;5037450;28;20573;-82
2023/07/04 05:13:03;;;;;;;10.93;6.80;;;;;;;;;;5037108;28;20024;-82
2023/07/04 05:15:29;;;;;;;12.88;6.78;;;;;;;;;;5037450;28;20447;-82
2023/07/04 05:17:54;;;;;;;9.00;6.32;;;;;;;;;;5020589;28;20494;-82
2023/07/04 05:20:23;;;;;;;11.13;6.03;;;;;;;;;;5036799;28;20025;-82
2023/07/04 05:22:49;;;;;;;11.68;6.20;;;;;;;;;;5020720;28;20029;-82
2023/07/04 05:25:15;;;;;;;11.75;5.25;;;;;;;;;;5004432;28;20033;-82
2023/07/04 05:27:41;;;;;;;13.52;6.18;;;;;;;;;;5020383;28;20091;-82
2023/07/04 05:30:08;;;;;;;11.88;5.90;;;;;;;;;;5020322;28;20037;-83
2023/07/04 05:32:33;;;;;;;11.02;5.68;;;;;;;;;;5020437;28;20117;-84
2023/07/04 05:34:59;;;;;;;9.80;5.53;;;;;;;;;;5039592;28;20053;-83
2023/07/04 05:37:25;;;;;;;10.30;6.22;;;;;;;;;;5026750;28;20033;-86
2023/07/04 05:39:51;;;;;;;36.45;6.22;;;;;;;;;;5043159;28;20036;-87
2023/07/04 05:42:16;;;;;;;8.23;5.60;;;;;;;;;;5042839;28;20024;-87
2023/07/04 05:44:41;;;;;;;9.20;6.15;;;;;;;;;;5043533;28;20096;-87
2023/07/04 05:47:08;;;;;;;12.15;6.15;;;;;;;;;;5042487;28;20028;-86
2023/07/04 05:49:33;;;;;;;9.68;5.65;;;;;;;;;;5060626;28;20129;-88
2023/07/04 05:51:59;;;;;;;10.55;5.55;;;;;;;;;;5042063;28;20448;-87
2023/07/04 05:54:24;;;;;;;11.05;5.63;;;;;;;;;;5026508;28;20087;-86
2023/07/04 05:56:56;;;;;;;7.93;5.70;;;;;;;;;;5046743;28;20055;-89
2023/07/04 05:59:21;;;;;;;8.27;5.50;;;;;;;;;;5027174;28;20036;-87
2023/07/04 06:01:47;;;;;;;8.23;5.57;;;;;;;;;;5043529;28;20127;-88
2023/07/04 06:04:12;;;;;;;14.15;6.07;;;;;;;;;;5046070;28;20083;-87
2023/07/04 06:06:41;;;;;;;7.10;5.53;;;;;;;;;;5028705;28;20103;-88
2023/07/04 06:09:10;;;;;;;8.38;5.20;;;;;;;;;;5028348;28;20035;-87
2023/07/04 06:11:36;;;;;;;8.65;5.53;;;;;;;;;;5043170;28;20111;-89
2023/07/04 06:14:02;;;;;;;7.97;5.50;;;;;;;;;;5027318;28;20404;-87
2023/07/04 06:16:28;;;;;;;12.80;6.10;;;;;;;;;;5029461;28;20056;-86
2023/07/04 06:18:53;;;;;;;8.32;5.30;;;;;;;;;;5034799;28;20048;-89
2023/07/04 06:21:20;;;;;;;13.23;5.53;;;;;;;;;;5031138;28;20037;-87
2023/07/04 06:23:46;;;;;;;11.15;5.03;;;;;;;;;;5037664;28;20021;-88
2023/07/04 06:26:11;;;;;;;10.82;5.55;;;;;;;;;;5048137;28;20047;-90
2023/07/04 06:28:37;;;;;;;7.22;5.20;;;;;;;;;;5030414;28;20037;-90
2023/07/04 06:31:06;;;;;;;8.77;5.00;;;;;;;;;;5029136;28;20012;-86
2023/07/04 06:33:31;;;;;;;;;;;;;;;;;;5045855;28;20025;-87
2023/07/04 06:35:57;;;;;;;9.98;5.10;;;;;;;;;;5063662;28;19919;-87
2023/07/04 06:38:22;;;;;;;6.78;4.78;;;;;;;;;;5066169;28;20025;-87
2023/07/04 06:40:59;;;;;;;8.55;4.80;;;;;;;;;;5054433;28;20021;-86
2023/07/04 06:43:25;;;;;;;7.57;5.00;;;;;;;;;;5053920;28;20097;-87
2023/07/04 06:45:50;;;;;;;6.18;5.05;;;;;;;;;;5051525;28;20029;-87
2023/07/04 06:48:16;;;;;;;6.53;5.00;;;;;;;;;;5051311;28;20029;-80
2023/07/04 06:50:42;;;;;;;10.98;4.90;;;;;;;;;;5068282;28;20032;-77
2023/07/04 06:53:08;;;;;;;8.52;4.90;;;;;;;;;;5048814;28;20025;-80
2023/07/04 06:55:34;;;;;;;7.20;4.57;;;;;;;;;;5069065;28;20029;-79
2023/07/04 06:57:59;;;;;;;6.30;4.88;;;;;;;;;;5062881;28;20128;-79
2023/07/04 07:00:25;;;;;;;9.35;5.47;;;;;;;;;;5061233;28;20029;-79
2023/07/04 07:02:50;;;;;;;6.32;5.28;;;;;;;;;;5060166;28;20055;-78
2023/07/04 07:05:17;;;;;;;10.98;5.20;;;;;;;;;;5059626;28;20024;-80
2023/07/04 07:07:43;;;;;;;7.38;4.90;;;;;;;;;;5026643;28;20029;-81
2023/07/04 07:10:12;;;;;;;6.63;4.97;;;;;;;;;;5057797;28;20033;-81
2023/07/04 07:12:38;;;;;;;8.95;4.85;;;;;;;;;;5059032;28;20428;-78
2023/07/04 07:15:09;;;;;;;8.13;5.30;;;;;;;;;;5059571;28;20086;-79
2023/07/04 07:17:43;;;;;;;6.88;5.53;;;;;;;;;;5060482;28;20106;-81
2023/07/04 07:20:08;;;;;;;8.05;4.88;;;;;;;;;;5061582;28;20057;-83
2023/07/04 07:22:34;;;;;;;10.68;5.25;;;;;;;;;;5058897;28;20029;-79
2023/07/04 07:24:59;;;;;;;8.93;5.10;;;;;;;;;;5059494;28;20021;-80
2023/07/04 07:27:25;;;;;;;5.40;4.50;;;;;;;;;;5027451;28;20439;-80
2023/07/04 07:29:50;;;;;;;16.92;5.78;;;;;;;;;;5057086;28;20025;-79
2023/07/04 07:32:16;;;;;;;4.97;4.47;;;;;;;;;;5059342;28;20028;-79
2023/07/04 07:34:41;;;;;;;6.40;4.40;;;;;;;;;;5059579;28;20064;-79
2023/07/04 07:37:07;;;;;;;6.50;4.97;;;;;;;;;;5043074;28;20025;-79
2023/07/04 07:39:32;;;;;;;9.30;4.90;;;;;;;;;;5060554;28;20045;-78
2023/07/04 07:41:59;;;;;;;7.35;4.75;;;;;;;;;;5060722;28;20746;-80
2023/07/04 07:44:29;;;;;;;8.20;5.70;;;;;;;;;;5044464;28;20025;-79
2023/07/04 07:46:54;;;;;;;7.05;4.43;;;;;;;;;;5041356;28;20029;-80
2023/07/04 07:49:20;;;;;;;7.63;4.80;;;;;;;;;;5029548;28;20560;-78
2023/07/04 07:51:45;;;;;;;5.63;4.93;;;;;;;;;;5038865;28;20112;-78
2023/07/04 07:54:13;;;;;;;7.30;5.38;;;;;;;;;;5022199;28;20472;-78
2023/07/04 07:56:44;;;;;;;8.13;5.15;;;;;;;;;;5022806;28;20646;-79
2023/07/04 07:59:09;;;;;;;5.78;4.97;;;;;;;;;;5023941;28;20144;-78
2023/07/04 08:01:35;;;;;;;6.22;4.90;;;;;;;;;;5006489;28;20049;-78
2023/07/04 08:04:01;;;;;;;9.02;4.82;;;;;;;;;;5024955;28;20025;-78
2023/07/04 08:06:32;;;;;;;10.25;5.00;;;;;;;;;;5006653;28;20041;-78
2023/07/04 08:08:58;;;;;;;7.72;5.43;;;;;;;;;;5006029;28;20033;-77
2023/07/04 08:11:24;;;;;;;9.68;5.10;;;;;;;;;;5022462;28;20027;-78
2023/07/04 08:13:50;;;;;;;6.68;5.32;;;;;;;;;;5019437;28;20026;-77
2023/07/04 08:16:20;;;;;;;12.05;5.22;;;;;;;;;;5019997;28;20022;-77
2023/07/04 08:18:45;;;;;;;9.35;5.43;;;;;;;;;;5003263;28;20036;-78
2023/07/04 08:21:11;;;;;;;5.80;4.93;;;;;;;;;;5021242;28;20026;-78
2023/07/04 08:23:36;;;;;;;9.60;5.35;;;;;;;;;;4989262;28;20048;-78
2023/07/04 08:26:02;;;;;;;9.70;5.82;;;;;;;;;;5022518;28;20116;-78
2023/07/04 08:28:27;;;;;;;6.85;5.38;;;;;;;;;;5006261;28;20044;-79
2023/07/04 08:30:53;;;;;;;6.35;5.30;;;;;;;;;;5007560;28;20029;-81
2023/07/04 08:33:18;;;;;;;9.63;5.63;;;;;;;;;;5007965;28;20073;-80
2023/07/04 08:35:56;;;;;;;8.15;5.68;;;;;;;;;;5006473;28;20056;-81
2023/07/04 08:38:22;;;;;;;13.85;5.88;;;;;;;;;;5007311;28;20036;-79
2023/07/04 08:40:48;;;;;;;6.45;5.75;;;;;;;;;;4990943;28;20387;-79
2023/07/04 08:43:13;;;;;;;12.25;6.00;;;;;;;;;;5023104;28;20064;-81
2023/07/04 08:45:39;;;;;;;7.03;5.65;;;;;;;;;;5006386;28;20022;-80
2023/07/04 08:48:04;;;;;;;6.15;5.55;;;;;;;;;;5023554;28;20033;-80
2023/07/04 08:50:32;;;;;;;8.85;5.70;;;;;;;;;;4992227;28;20022;-79
2023/07/04 08:53:05;;;;;;;8.55;5.93;;;;;;;;;;5026691;28;20034;-80
2023/07/04 08:55:31;;;;;;;9.02;5.30;;;;;;;;;;5040359;28;20054;-79
2023/07/04 08:57:58;;;;;;;7.63;5.45;;;;;;;;;;5021651;28;20463;-79
2023/07/04 09:00:36;;;;;;;8.50;5.70;;;;;;;;;;5006034;28;20031;-80
2023/07/04 09:03:29;;;;;;;7.38;4.97;;;;;;;;;;5021391;28;20027;-79
2023/07/04 09:06:13;;;;;;;7.85;5.18;;;;;;;;;;5024368;28;20453;-80
2023/07/04 09:09:01;;;;;;;5.95;5.13;;;;;;;;;;5010711;28;20445;-82
2023/07/04 09:11:28;;;;;;;7.28;5.50;;;;;;;;;;5027313;28;20061;-80
2023/07/04 09:13:59;;;;;;;11.05;5.38;;;;;;;;;;5024948;28;20039;-80
2023/07/04 09:16:38;;;;;;;5.43;4.80;;;;;;;;;;5022329;28;20057;-80
2023/07/04 09:19:05;;;;;;;5.65;5.05;;;;;;;;;;5026305;28;20461;-80
2023/07/04 09:21:47;;;;;;;10.48;5.00;;;;;;;;;;5024532;28;20082;-81
2023/07/04 09:24:14;;;;;;;11.20;4.68;;;;;;;;;;5007915;28;20029;-81
2023/07/04 09:26:54;;;;;;;6.10;4.47;;;;;;;;;;5026358;28;20021;-81
2023/07/04 09:29:22;;;;;;;8.25;4.68;;;;;;;;;;5010089;28;20037;-80
2023/07/04 09:31:58;;;;;;;8.07;4.75;;;;;;;;;;5044054;28;20065;-79
2023/07/04 09:34:36;;;;;;;7.13;4.90;;;;;;;;;;5013237;28;20090;-82
2023/07/04 09:37:08;;;;;;;7.25;4.63;;;;;;;;;;5008923;28;20064;-79
2023/07/04 09:40:04;;;;;;;5.65;4.70;;;;;;;;;;5009977;28;20433;-81
2023/07/04 09:42:33;;;;;;;8.98;4.60;;;;;;;;;;5031574;28;20035;-80
2023/07/04 09:45:05;;;;;;;8.02;4.78;;;;;;;;;;5036339;28;20026;-80
2023/07/04 09:47:31;;;;;;;10.07;5.75;;;;;;;;;;5019645;28;20021;-79
2023/07/04 09:50:26;;;;;;;7.22;4.80;;;;;;;;;;5036742;28;20037;-82
2023/07/04 09:53:09;;;;;;;5.57;4.50;;;;;;;;;;5029490;28;20126;-79
2023/07/04 09:55:35;;;;;;;4.70;4.15;;;;;;;;;;5006653;28;20563;-79
2023/07/04 09:58:21;;;;;;;4.70;4.20;;;;;;;;;;5005735;28;20065;-81
2023/07/04 10:01:08;;;;;;;6.03;3.75;;;;;;;;;;5022585;28;20038;-80
2023/07/04 10:03:35;;;;;;;7.93;5.55;;;;;;;;;;5021116;28;20049;-82
2023/07/04 10:06:04;;;;;;;4.80;4.22;;;;;;;;;;5021929;28;20026;-80
2023/07/04 10:08:29;;;;;;;4.65;4.05;;;;;;;;;;5005489;28;20030;-80
2023/07/04 10:10:56;;;;;;;5.70;4.20;;;;;;;;;;5005762;28;20048;-80
2023/07/04 10:13:33;;;;;;;7.38;3.90;;;;;;;;;;5021694;28;20442;-80
2023/07/04 10:15:59;;;;;;;4.13;3.73;;;;;;;;;;5021940;28;20044;-80
2023/07/04 10:18:29;;;;;;;4.03;3.40;;;;;;;;;;5019788;28;20053;-80
2023/07/04 10:20:56;;;;;;;3.92;3.13;;;;;;;;;;5018702;28;20369;-80
2023/07/04 10:23:22;;;;;;;10.88;3.33;;;;;;;;;;5019282;28;20028;-80
2023/07/04 10:25:50;;;;;;;6.70;3.35;;;;;;;;;;5017724;28;20026;-78
2023/07/04 10:28:17;;;;;;;5.07;3.35;;;;;;;;;;5018561;28;20087;-78
2023/07/04 10:30:46;;;;;;;3.95;3.60;;;;;;;;;;4986488;28;20034;-78
2023/07/04 10:33:18;;;;;;;9.63;4.03;;;;;;;;;;5002899;28;20041;-79
2023/07/04 10:35:45;;;;;;;6.30;4.30;;;;;;;;;;5004927;28;20041;-79
2023/07/04 10:38:32;;;;;;;4.03;3.73;;;;;;;;;;4988113;28;20036;-80
2023/07/04 10:40:58;;;;;;;8.25;3.80;;;;;;;;;;5018769;28;20284;-80
2023/07/04 10:43:32;;;;;;;5.32;3.70;;;;;;;;;;5018957;28;20030;-80
2023/07/04 10:45:58;;;;;;;4.75;4.00;;;;;;;;;;5019946;28;20124;-80
2023/07/04 10:48:23;;;;;;;5.07;3.90;;;;;;;;;;5018701;28;20069;-79
2023/07/04 10:50:52;;;;;;;6.45;4.00;;;;;;;;;;5001351;28;20045;-80
2023/07/04 10:53:18;;;;;;;4.28;3.50;;;;;;;;;;4987972;28;20030;-80
2023/07/04 10:55:50;;;;;;;4.75;3.70;;;;;;;;;;5019477;28;20046;-79
2023/07/04 10:58:20;;;;;;;7.00;3.53;;;;;;;;;;5008147;28;20551;-79
2023/07/04 11:01:00;;;;;;;7.47;4.30;;;;;;;;;;5019225;28;20025;-78
2023/07/04 11:03:49;;;;;;;4.00;3.58;;;;;;;;;;5017800;28;20026;-79
2023/07/04 11:06:37;;;;;;;6.47;3.88;;;;;;;;;;5018935;28;20033;-80
2023/07/04 11:09:05;;;;;;;;;;;;;;;;;;5004341;28;20045;-80
2023/07/04 11:11:31;;;;;;;3.90;3.50;;;;;;;;;;5017606;28;19980;-80
2023/07/04 11:14:00;;;;;;;5.43;3.80;;;;;;;;;;5000774;28;20037;-80
2023/07/04 11:16:28;;;;;;;7.15;3.75;;;;;;;;;;5002590;28;20033;-78
2023/07/04 11:19:14;;;;;;;5.93;3.55;;;;;;;;;;5020935;28;20044;-80
2023/07/04 11:22:13;;;;;;;6.10;3.08;;;;;;;;;;5006150;28;20076;-79
2023/07/04 11:24:52;;;;;;;5.50;3.80;;;;;;;;;;5022195;28;20108;-81
2023/07/04 11:27:29;;;;;;;3.83;3.40;;;;;;;;;;5021658;28;20032;-78
2023/07/04 11:30:02;;;;;;;4.00;3.55;;;;;;;;;;5020440;28;20046;-79
2023/07/04 11:32:37;;;;;;;4.15;3.60;;;;;;;;;;5021057;28;20036;-81
2023/07/04 11:35:13;;;;;;;5.63;3.90;;;;;;;;;;5021274;28;20026;-80
2023/07/04 11:37:45;;;;;;;5.18;3.50;;;;;;;;;;5022860;28;20030;-78
2023/07/04 11:40:18;;;;;;;8.50;3.88;;;;;;;;;;5020747;28;20030;-79
2023/07/04 11:42:47;;;;;;;6.88;3.63;;;;;;;;;;5020297;28;20022;-79
2023/07/04 11:45:14;;;;;;;6.40;3.80;;;;;;;;;;5004108;28;20018;-79
2023/07/04 11:47:42;;;;;;;5.18;3.38;;;;;;;;;;5018911;28;20548;-79
2023/07/04 11:50:13;;;;;;;5.55;3.60;;;;;;;;;;5019805;28;20361;-79
2023/07/04 11:52:41;;;;;;;5.80;3.58;;;;;;;;;;5019363;28;20045;-78
2023/07/04 11:55:09;;;;;;;5.75;3.80;;;;;;;;;;5004278;28;20060;-78
2023/07/04 11:58:07;;;;;;;8.48;3.85;;;;;;;;;;4990224;28;20049;-78
2023/07/04 12:00:38;;;;;;;5.95;3.80;;;;;;;;;;5011509;28;20056;-80
2023/07/04 12:03:19;;;;;;;5.82;3.95;;;;;;;;;;5019370;28;20069;-80
2023/07/04 12:05:52;;;;;;;9.82;4.00;;;;;;;;;;5020459;28;20029;-79
2023/07/04 12:08:21;;;;;;;6.10;4.30;;;;;;;;;;5019286;28;20030;-79
2023/07/04 12:10:46;;;;;;;;;;;;;;;;;;5004844;28;20036;-80
2023/07/04 12:13:12;;;;;;;7.10;3.88;;;;;;;;;;5020974;28;19914;-78
2023/07/04 12:15:38;;;;;;;5.28;3.90;;;;;;;;;;4987815;28;20038;-77
2023/07/04 12:18:24;;;;;;;5.15;3.80;;;;;;;;;;5002750;28;20026;-79
2023/07/04 12:20:50;;;;;;;9.35;4.10;;;;;;;;;;5005866;28;20428;-80
2023/07/04 12:23:16;;;;;;;7.03;3.90;;;;;;;;;;5019291;28;20030;-80
2023/07/04 12:25:44;;;;;;;4.63;3.65;;;;;;;;;;5002907;28;20108;-80
2023/07/04 12:28:11;;;;;;;6.45;3.88;;;;;;;;;;5034616;28;20052;-79
2023/07/04 12:30:52;;;;;;;5.18;4.10;;;;;;;;;;4986497;28;20030;-79
2023/07/04 12:33:22;;;;;;;6.80;3.88;;;;;;;;;;5020803;28;20030;-79
2023/07/04 12:35:55;;;;;;;6.35;4.13;;;;;;;;;;5005574;28;20055;-79
2023/07/04 12:38:24;;;;;;;6.13;4.00;;;;;;;;;;5006275;28;20030;-80
2023/07/04 12:40:49;;;;;;;8.63;4.13;;;;;;;;;;5005606;28;20029;-80
2023/07/04 12:43:15;;;;;;;5.55;3.65;;;;;;;;;;5004777;28;20033;-78
2023/07/04 12:45:41;;;;;;;12.82;7.57;;;;;;;;;;4987015;28;20041;-79
2023/07/04 12:48:07;;;;;;;8.35;4.13;;;;;;;;;;5002754;28;20050;-78
2023/07/04 12:50:32;;;;;;;5.68;3.90;;;;;;;;;;5019390;28;20434;-80
2023/07/04 12:52:58;;;;;;;4.82;3.75;;;;;;;;;;5014323;28;20036;-79
2023/07/04 12:55:31;;;;;;;6.32;3.80;;;;;;;;;;4997811;28;20041;-79
2023/07/04 12:57:56;;;;;;;5.40;4.10;;;;;;;;;;4998583;28;20385;-79
2023/07/04 13:00:27;;;;;;;5.13;3.90;;;;;;;;;;4998160;28;20026;-80
2023/07/04 13:02:55;;;;;;;6.55;3.85;;;;;;;;;;5014412;28;20057;-79
2023/07/04 13:05:20;;;;;;;7.53;3.75;;;;;;;;;;5014400;28;20034;-79
2023/07/04 13:07:49;;;;;;;5.63;3.85;;;;;;;;;;5014914;28;20176;-78
2023/07/04 13:10:23;;;;;;;6.18;3.53;;;;;;;;;;4997650;28;20376;-80
2023/07/04 13:12:48;;;;;;;4.70;3.97;;;;;;;;;;4981442;28;20140;-79
2023/07/04 13:15:29;;;;;;;4.38;3.80;;;;;;;;;;5014994;28;20172;-79
2023/07/04 13:18:02;;;;;;;6.95;3.70;;;;;;;;;;4998794;28;20441;-78
2023/07/04 13:20:32;;;;;;;4.95;4.10;;;;;;;;;;5014985;28;20446;-78
2023/07/04 13:23:20;;;;;;;5.97;3.78;;;;;;;;;;5020110;28;20460;-80
2023/07/04 13:25:46;;;;;;;7.72;4.10;;;;;;;;;;5035182;28;20091;-78
2023/07/04 13:28:22;;;;;;;7.45;3.85;;;;;;;;;;5016948;28;20032;-78
2023/07/04 13:30:47;;;;;;;5.05;3.95;;;;;;;;;;5033545;28;20033;-77
2023/07/04 13:33:34;;;;;;;4.25;3.80;;;;;;;;;;5017146;28;20035;-79
2023/07/04 13:36:12;;;;;;;6.03;3.70;;;;;;;;;;5032998;28;20029;-79
2023/07/04 13:38:41;;;;;;;4.30;3.90;;;;;;;;;;5034621;28;20039;-78
2023/07/04 13:41:07;;;;;;;6.38;3.78;;;;;;;;;;5017062;28;20116;-78
2023/07/04 13:43:34;;;;;;;3.97;3.50;;;;;;;;;;5033846;28;20022;-79
2023/07/04 13:46:00;;;;;;;7.30;3.50;;;;;;;;;;5000811;28;20018;-79
2023/07/04 13:48:27;;;;;;;7.38;3.63;;;;;;;;;;5016831;28;20412;-79
2023/07/04 13:50:52;;;;;;;7.05;3.58;;;;;;;;;;5033023;28;20025;-80
2023/07/04 13:53:18;;;;;;;6.40;3.70;;;;;;;;;;5033177;28;20025;-82
2023/07/04 13:55:43;;;;;;;8.77;4.20;;;;;;;;;;5016379;28;20037;-80
2023/07/04 13:58:09;;;;;;;4.70;3.63;;;;;;;;;;5032917;28;20025;-78
2023/07/04 14:00:34;;;;;;;5.60;3.90;;;;;;;;;;5016595;28;20404;-81
2023/07/04 14:03:00;;;;;;;6.82;3.92;;;;;;;;;;5017243;28;20036;-81
2023/07/04 14:05:26;;;;;;;5.03;3.85;;;;;;;;;;5033902;28;20028;-78
2023/07/04 14:07:51;;;;;;;9.63;4.05;;;;;;;;;;5015645;28;20056;-80
2023/07/04 14:10:18;;;;;;;9.50;4.10;;;;;;;;;;5031286;28;20397;-81
2023/07/04 14:12:43;;;;;;;4.75;3.70;;;;;;;;;;5031148;28;20085;-81
2023/07/04 14:15:09;;;;;;;6.55;4.07;;;;;;;;;;5015275;28;20121;-82
2023/07/04 14:17:35;;;;;;;5.63;3.55;;;;;;;;;;5014853;28;20503;-82
2023/07/04 14:20:02;;;;;;;5.88;3.60;;;;;;;;;;5014649;28;20351;-79
2023/07/04 14:22:28;;;;;;;4.43;3.90;;;;;;;;;;5033539;28;20076;-79
2023/07/04 14:24:54;;;;;;;3.90;3.58;;;;;;;;;;5000300;28;20032;-79
2023/07/04 14:27:19;;;;;;;7.07;3.97;;;;;;;;;;5033993;28;20026;-79
2023/07/04 14:29:45;;;;;;;5.13;4.00;;;;;;;;;;5033159;28;20112;-78
2023/07/04 14:32:11;;;;;;;4.32;3.50;;;;;;;;;;5034111;28;20036;-79
2023/07/04 14:34:36;;;;;;;4.95;3.85;;;;;;;;;;5032613;28;20076;-79
2023/07/04 14:37:02;;;;;;;4.30;3.78;;;;;;;;;;5032663;28;20040;-79
2023/07/04 14:39:27;;;;;;;4.75;3.83;;;;;;;;;;5033778;28;20101;-79
2023/07/04 14:41:54;;;;;;;6.22;3.80;;;;;;;;;;5016434;28;20021;-78
2023/07/04 14:44:20;;;;;;;7.45;3.78;;;;;;;;;;5032693;28;20116;-79
2023/07/04 14:46:46;;;;;;;5.82;4.05;;;;;;;;;;5016144;28;20509;-79